sensor_id;sensor_type;location;lat;lon;timestamp;pressure;altitude;pressure_sealevel;temperature;humidity
81379;BME280;70830;42.290;-71.354;2024-03-08T00:00:10;101299.28;;;6.67;68.02
81379;BME280;70830;42.290;-71.354;2024-03-08T00:02:38;101308.06;;;6.64;68.75
81379;BME280;70830;42.290;-71.354;2024-03-08T00:05:06;101298.53;;;6.62;69.08
81379;BME280;70830;42.290;-71.354;2024-03-08T00:07:34;101297.75;;;6.54;68.16
81379;BME280;70830;42.290;-71.354;2024-03-08T00:10:02;101309.13;;;6.53;69.24
81379;BME280;70830;42.290;-71.354;2024-03-08T00:12:28;101314.44;;;6.48;67.66
81379;BME280;70830;42.290;-71.354;2024-03-08T00:14:54;101307.41;;;6.49;68.10
81379;BME280;70830;42.290;-71.354;2024-03-08T00:17:21;101299.66;;;6.43;67.69
81379;BME280;70830;42.290;-71.354;2024-03-08T00:19:50;101303.94;;;6.50;67.88
81379;BME280;70830;42.290;-71.354;2024-03-08T00:22:17;101307.41;;;6.49;68.75
81379;BME280;70830;42.290;-71.354;2024-03-08T00:24:43;101316.16;;;6.49;69.40
81379;BME280;70830;42.290;-71.354;2024-03-08T00:27:09;101309.19;;;6.47;68.19
81379;BME280;70830;42.290;-71.354;2024-03-08T00:29:37;101320.59;;;6.43;68.56
81379;BME280;70830;42.290;-71.354;2024-03-08T00:32:06;101334.56;;;6.43;68.62
81379;BME280;70830;42.290;-71.354;2024-03-08T00:34:35;101323.34;;;6.35;67.98
81379;BME280;70830;42.290;-71.354;2024-03-08T00:37:03;101325.09;;;6.35;68.96
81379;BME280;70830;42.290;-71.354;2024-03-08T00:39:29;101340.78;;;6.36;67.54
81379;BME280;70830;42.290;-71.354;2024-03-08T00:41:55;101318.22;;;6.25;68.20
81379;BME280;70830;42.290;-71.354;2024-03-08T00:44:21;101329.53;;;6.30;67.87
81379;BME280;70830;42.290;-71.354;2024-03-08T00:46:47;101346.00;;;6.39;67.86
81379;BME280;70830;42.290;-71.354;2024-03-08T00:49:14;101337.34;;;6.33;68.33
81379;BME280;70830;42.290;-71.354;2024-03-08T00:51:41;101340.88;;;6.30;68.36
81379;BME280;70830;42.290;-71.354;2024-03-08T00:54:06;101309.59;;;6.20;66.91
81379;BME280;70830;42.290;-71.354;2024-03-08T00:56:32;101339.06;;;6.35;67.95
81379;BME280;70830;42.290;-71.354;2024-03-08T00:58:59;101348.66;;;6.33;67.59
81379;BME280;70830;42.290;-71.354;2024-03-08T01:01:25;101338.34;;;6.24;67.26
81379;BME280;70830;42.290;-71.354;2024-03-08T01:03:51;101342.66;;;6.25;67.00
81379;BME280;70830;42.290;-71.354;2024-03-08T01:06:17;101341.88;;;6.19;67.67
81379;BME280;70830;42.290;-71.354;2024-03-08T01:08:44;101371.41;;;6.30;67.22
81379;BME280;70830;42.290;-71.354;2024-03-08T01:11:12;101380.16;;;6.30;66.52
81379;BME280;70830;42.290;-71.354;2024-03-08T01:13:38;101375.88;;;6.23;67.69
81379;BME280;70830;42.290;-71.354;2024-03-08T01:16:04;101397.63;;;6.28;66.83
81379;BME280;70830;42.290;-71.354;2024-03-08T01:18:30;101352.56;;;6.04;66.78
81379;BME280;70830;42.290;-71.354;2024-03-08T01:20:56;101401.22;;;6.18;66.77
81379;BME280;70830;42.290;-71.354;2024-03-08T01:23:23;101400.34;;;6.21;67.16
81379;BME280;70830;42.290;-71.354;2024-03-08T01:25:49;101417.78;;;6.22;67.50
81379;BME280;70830;42.290;-71.354;2024-03-08T01:28:23;101399.56;;;6.13;67.55
81379;BME280;70830;42.290;-71.354;2024-03-08T01:30:50;101410.91;;;6.13;66.55
81379;BME280;70830;42.290;-71.354;2024-03-08T01:33:22;101397.91;;;6.06;66.85
81379;BME280;70830;42.290;-71.354;2024-03-08T01:35:48;101401.38;;;6.06;65.74
81379;BME280;70830;42.290;-71.354;2024-03-08T01:38:14;101417.03;;;6.11;66.56
81379;BME280;70830;42.290;-71.354;2024-03-08T01:40:41;101430.13;;;6.11;66.42
81379;BME280;70830;42.290;-71.354;2024-03-08T01:43:25;101423.22;;;6.04;65.87
81379;BME280;70830;42.290;-71.354;2024-03-08T01:45:54;101427.56;;;6.06;65.28
81379;BME280;70830;42.290;-71.354;2024-03-08T01:48:21;101445.88;;;6.06;65.64
81379;BME280;70830;42.290;-71.354;2024-03-08T01:50:50;101420.75;;;5.90;66.13
81379;BME280;70830;42.290;-71.354;2024-03-08T01:53:18;101439.84;;;5.98;66.41
81379;BME280;70830;42.290;-71.354;2024-03-08T01:55:47;101445.97;;;5.96;66.17
81379;BME280;70830;42.290;-71.354;2024-03-08T01:58:14;101439.03;;;5.95;65.56
81379;BME280;70830;42.290;-71.354;2024-03-08T02:00:46;101455.53;;;5.98;66.32
81379;BME280;70830;42.290;-71.354;2024-03-08T02:03:15;101452.09;;;5.96;66.55
81379;BME280;70830;42.290;-71.354;2024-03-08T02:05:41;101463.44;;;5.95;65.91
81379;BME280;70830;42.290;-71.354;2024-03-08T02:08:08;101461.69;;;5.96;66.82
81379;BME280;70830;42.290;-71.354;2024-03-08T02:10:39;101451.31;;;5.83;65.05
81379;BME280;70830;42.290;-71.354;2024-03-08T02:13:06;101473.06;;;5.93;65.01
81379;BME280;70830;42.290;-71.354;2024-03-08T02:18:21;101477.44;;;5.93;66.35
81379;BME280;70830;42.290;-71.354;2024-03-08T02:20:57;101460.03;;;5.87;65.27
81379;BME280;70830;42.290;-71.354;2024-03-08T02:23:23;101467.91;;;5.85;65.65
81379;BME280;70830;42.290;-71.354;2024-03-08T02:25:53;101477.50;;;5.86;64.96
81379;BME280;70830;42.290;-71.354;2024-03-08T02:28:20;101473.16;;;5.79;65.66
81379;BME280;70830;42.290;-71.354;2024-03-08T02:30:47;101481.00;;;5.79;64.63
81379;BME280;70830;42.290;-71.354;2024-03-08T02:33:14;101492.38;;;5.77;66.24
81379;BME280;70830;42.290;-71.354;2024-03-08T02:35:44;101481.03;;;5.73;65.86
81379;BME280;70830;42.290;-71.354;2024-03-08T02:38:17;101494.97;;;5.80;66.22
81379;BME280;70830;42.290;-71.354;2024-03-08T02:40:48;101515.88;;;5.78;64.94
81379;BME280;70830;42.290;-71.354;2024-03-08T02:43:16;101491.53;;;5.69;63.96
81379;BME280;70830;42.290;-71.354;2024-03-08T02:45:43;101507.19;;;5.73;66.34
81379;BME280;70830;42.290;-71.354;2024-03-08T02:48:11;101515.06;;;5.75;65.61
81379;BME280;70830;42.290;-71.354;2024-03-08T02:50:37;101500.31;;;5.66;66.05
81379;BME280;70830;42.290;-71.354;2024-03-08T02:53:06;101503.78;;;5.68;65.15
81379;BME280;70830;42.290;-71.354;2024-03-08T02:55:32;101516.81;;;5.71;66.24
81379;BME280;70830;42.290;-71.354;2024-03-08T02:58:02;101503.84;;;5.59;66.15
81379;BME280;70830;42.290;-71.354;2024-03-08T03:00:33;101524.69;;;5.67;66.01
81379;BME280;70830;42.290;-71.354;2024-03-08T03:02:59;101534.34;;;5.63;65.17
81379;BME280;70830;42.290;-71.354;2024-03-08T03:05:29;101510.91;;;5.47;65.03
81379;BME280;70830;42.290;-71.354;2024-03-08T03:07:55;101546.56;;;5.60;65.06
81379;BME280;70830;42.290;-71.354;2024-03-08T03:10:24;101544.84;;;5.54;65.76
81379;BME280;70830;42.290;-71.354;2024-03-08T03:12:50;101542.25;;;5.51;65.73
81379;BME280;70830;42.290;-71.354;2024-03-08T03:15:17;101545.72;;;5.56;65.67
81379;BME280;70830;42.290;-71.354;2024-03-08T03:17:50;101528.38;;;5.43;66.05
81379;BME280;70830;42.290;-71.354;2024-03-08T03:20:19;101546.63;;;5.52;66.13
81379;BME280;70830;42.290;-71.354;2024-03-08T03:22:52;101514.47;;;5.40;65.79
81379;BME280;70830;42.290;-71.354;2024-03-08T03:25:19;101508.41;;;5.33;65.29
81379;BME280;70830;42.290;-71.354;2024-03-08T03:27:52;101539.69;;;5.44;66.19
81379;BME280;70830;42.290;-71.354;2024-03-08T03:30:18;101556.28;;;5.41;66.10
81379;BME280;70830;42.290;-71.354;2024-03-08T03:32:50;101554.53;;;5.39;66.09
81379;BME280;70830;42.290;-71.354;2024-03-08T03:35:21;101540.69;;;5.26;66.02
81379;BME280;70830;42.290;-71.354;2024-03-08T03:37:48;101559.81;;;5.33;66.06
81379;BME280;70830;42.290;-71.354;2024-03-08T03:40:34;101545.03;;;5.22;66.53
81379;BME280;70830;42.290;-71.354;2024-03-08T03:43:00;101574.63;;;5.32;66.32
81379;BME280;70830;42.290;-71.354;2024-03-08T03:45:28;101566.81;;;5.28;65.90
81379;BME280;70830;42.290;-71.354;2024-03-08T03:47:55;101577.25;;;5.28;64.92
81379;BME280;70830;42.290;-71.354;2024-03-08T03:50:21;101592.06;;;5.32;64.88
81379;BME280;70830;42.290;-71.354;2024-03-08T03:52:49;101581.63;;;5.27;65.69
81379;BME280;70830;42.290;-71.354;2024-03-08T03:55:15;101585.13;;;5.28;65.16
81379;BME280;70830;42.290;-71.354;2024-03-08T03:57:42;101570.38;;;5.17;65.64
81379;BME280;70830;42.290;-71.354;2024-03-08T04:00:11;101583.38;;;5.28;65.34
81379;BME280;70830;42.290;-71.354;2024-03-08T04:02:38;101586.88;;;5.24;65.41
81379;BME280;70830;42.290;-71.354;2024-03-08T04:05:08;101589.50;;;5.18;66.08
81379;BME280;70830;42.290;-71.354;2024-03-08T04:07:35;101587.81;;;5.12;65.78
81379;BME280;70830;42.290;-71.354;2024-03-08T04:10:05;101596.53;;;5.10;66.07
81379;BME280;70830;42.290;-71.354;2024-03-08T04:12:32;101561.78;;;4.88;65.50
81379;BME280;70830;42.290;-71.354;2024-03-08T04:14:58;101590.50;;;4.97;65.21
81379;BME280;70830;42.290;-71.354;2024-03-08T04:17:24;101593.09;;;4.91;66.55
81379;BME280;70830;42.290;-71.354;2024-03-08T04:19:51;101601.84;;;4.86;65.59
81379;BME280;70830;42.290;-71.354;2024-03-08T04:22:17;101576.59;;;4.76;65.36
81379;BME280;70830;42.290;-71.354;2024-03-08T04:24:46;101590.56;;;4.73;66.04
81379;BME280;70830;42.290;-71.354;2024-03-08T04:27:12;101579.25;;;4.61;65.01
81379;BME280;70830;42.290;-71.354;2024-03-08T04:29:39;101581.88;;;4.56;65.85
81379;BME280;70830;42.290;-71.354;2024-03-08T04:32:06;101601.03;;;4.61;66.47
81379;BME280;70830;42.290;-71.354;2024-03-08T04:34:34;101590.63;;;4.51;66.10
81379;BME280;70830;42.290;-71.354;2024-03-08T04:37:01;101618.44;;;4.61;65.82
81379;BME280;70830;42.290;-71.354;2024-03-08T04:39:28;101616.72;;;4.52;65.64
81379;BME280;70830;42.290;-71.354;2024-03-08T04:41:55;101634.97;;;4.54;66.50
81379;BME280;70830;42.290;-71.354;2024-03-08T04:44:23;101618.47;;;4.33;66.40
81379;BME280;70830;42.290;-71.354;2024-03-08T04:46:50;101628.06;;;4.37;66.10
81379;BME280;70830;42.290;-71.354;2024-03-08T04:49:16;101624.56;;;4.34;66.61
81379;BME280;70830;42.290;-71.354;2024-03-08T04:51:42;101648.06;;;4.38;66.74
81379;BME280;70830;42.290;-71.354;2024-03-08T04:54:09;101598.47;;;4.05;65.96
81379;BME280;70830;42.290;-71.354;2024-03-08T04:56:35;101639.38;;;4.32;66.39
81379;BME280;70830;42.290;-71.354;2024-03-08T04:59:01;101645.44;;;4.29;66.69
81379;BME280;70830;42.290;-71.354;2024-03-08T05:01:27;101639.38;;;4.26;66.40
81379;BME280;70830;42.290;-71.354;2024-03-08T05:03:53;101649.81;;;4.27;66.54
81379;BME280;70830;42.290;-71.354;2024-03-08T05:06:21;101653.28;;;4.25;66.24
81379;BME280;70830;42.290;-71.354;2024-03-08T05:08:47;101648.06;;;4.25;66.65
81379;BME280;70830;42.290;-71.354;2024-03-08T05:11:13;101624.56;;;4.14;66.38
81379;BME280;70830;42.290;-71.354;2024-03-08T05:13:40;101648.06;;;4.14;66.75
81379;BME280;70830;42.290;-71.354;2024-03-08T05:16:07;101654.13;;;4.18;66.81
81379;BME280;70830;42.290;-71.354;2024-03-08T05:18:34;101659.38;;;4.12;66.94
81379;BME280;70830;42.290;-71.354;2024-03-08T05:21:01;101662.84;;;4.09;66.75
81379;BME280;70830;42.290;-71.354;2024-03-08T05:23:30;101673.28;;;4.09;67.20
81379;BME280;70830;42.290;-71.354;2024-03-08T05:25:56;101649.78;;;4.05;66.41
81379;BME280;70830;42.290;-71.354;2024-03-08T05:28:22;101663.72;;;3.99;67.05
81379;BME280;70830;42.290;-71.354;2024-03-08T05:30:48;101669.78;;;4.01;66.46
81379;BME280;70830;42.290;-71.354;2024-03-08T05:33:15;101671.53;;;3.99;66.74
81379;BME280;70830;42.290;-71.354;2024-03-08T05:35:41;101671.53;;;3.96;66.79
81379;BME280;70830;42.290;-71.354;2024-03-08T05:38:07;101681.06;;;3.96;66.95
81379;BME280;70830;42.290;-71.354;2024-03-08T05:40:33;101681.09;;;3.93;67.56
81379;BME280;70830;42.290;-71.354;2024-03-08T05:42:59;101654.09;;;3.74;67.43
81379;BME280;70830;42.290;-71.354;2024-03-08T05:45:25;101674.97;;;3.80;67.34
81379;BME280;70830;42.290;-71.354;2024-03-08T05:47:52;101664.50;;;3.69;67.38
81379;BME280;70830;42.290;-71.354;2024-03-08T05:50:18;101687.13;;;3.77;67.38
81379;BME280;70830;42.290;-71.354;2024-03-08T05:52:45;101666.22;;;3.63;67.07
81379;BME280;70830;42.290;-71.354;2024-03-08T05:55:13;101678.41;;;3.64;67.45
81379;BME280;70830;42.290;-71.354;2024-03-08T05:57:42;101673.19;;;3.61;67.32
81379;BME280;70830;42.290;-71.354;2024-03-08T06:00:10;101702.75;;;3.72;67.60
81379;BME280;70830;42.290;-71.354;2024-03-08T06:02:41;101710.59;;;3.70;67.66
81379;BME280;70830;42.290;-71.354;2024-03-08T06:05:09;101712.34;;;3.68;67.29
81379;BME280;70830;42.290;-71.354;2024-03-08T06:07:36;101705.38;;;3.66;67.42
81379;BME280;70830;42.290;-71.354;2024-03-08T06:10:09;101713.16;;;3.61;67.83
81379;BME280;70830;42.290;-71.354;2024-03-08T06:12:36;101694.00;;;3.53;67.46
81379;BME280;70830;42.290;-71.354;2024-03-08T06:15:08;101697.50;;;3.51;67.96
81379;BME280;70830;42.290;-71.354;2024-03-08T06:17:36;101706.19;;;3.54;66.77
81379;BME280;70830;42.290;-71.354;2024-03-08T06:20:02;101707.03;;;3.52;67.11
81379;BME280;70830;42.290;-71.354;2024-03-08T06:22:29;101689.59;;;3.36;66.87
81379;BME280;70830;42.290;-71.354;2024-03-08T06:24:56;101715.72;;;3.48;67.20
81379;BME280;70830;42.290;-71.354;2024-03-08T06:27:22;101700.91;;;3.41;67.22
81379;BME280;70830;42.290;-71.354;2024-03-08T06:29:48;101718.31;;;3.45;67.57
81379;BME280;70830;42.290;-71.354;2024-03-08T06:32:14;101709.59;;;3.43;67.06
81379;BME280;70830;42.290;-71.354;2024-03-08T06:34:41;101699.16;;;3.35;66.90
81379;BME280;70830;42.290;-71.354;2024-03-08T06:37:07;101700.88;;;3.32;67.73
81379;BME280;70830;42.290;-71.354;2024-03-08T06:39:33;101709.59;;;3.38;67.71
81379;BME280;70830;42.290;-71.354;2024-03-08T06:42:01;101711.31;;;3.35;66.83
81379;BME280;70830;42.290;-71.354;2024-03-08T06:44:27;101707.78;;;3.27;67.04
81379;BME280;70830;42.290;-71.354;2024-03-08T06:46:53;101696.44;;;3.13;67.20
81379;BME280;70830;42.290;-71.354;2024-03-08T06:49:19;101685.13;;;3.08;67.36
81379;BME280;70830;42.290;-71.354;2024-03-08T06:51:45;101712.09;;;3.17;67.48
81379;BME280;70830;42.290;-71.354;2024-03-08T06:54:11;101712.09;;;3.19;66.68
81379;BME280;70830;42.290;-71.354;2024-03-08T06:56:37;101708.63;;;3.15;67.43
81379;BME280;70830;42.290;-71.354;2024-03-08T06:59:04;101699.84;;;3.01;67.15
81379;BME280;70830;42.290;-71.354;2024-03-08T07:01:30;101704.19;;;3.04;66.81
81379;BME280;70830;42.290;-71.354;2024-03-08T07:04:00;101698.09;;;2.97;66.19
81379;BME280;70830;42.290;-71.354;2024-03-08T07:06:31;101698.09;;;2.95;66.23
81379;BME280;70830;42.290;-71.354;2024-03-08T07:08:59;101712.00;;;2.97;66.35
81379;BME280;70830;42.290;-71.354;2024-03-08T07:11:25;101720.69;;;3.01;66.69
81379;BME280;70830;42.290;-71.354;2024-03-08T07:13:51;101688.44;;;2.82;66.47
81379;BME280;70830;42.290;-71.354;2024-03-08T07:16:17;101726.75;;;2.95;66.50
81379;BME280;70830;42.290;-71.354;2024-03-08T07:18:43;101724.09;;;2.92;66.64
81379;BME280;70830;42.290;-71.354;2024-03-08T07:21:09;101700.53;;;2.74;66.37
81379;BME280;70830;42.290;-71.354;2024-03-08T07:23:38;101714.44;;;2.78;65.78
81379;BME280;70830;42.290;-71.354;2024-03-08T07:26:28;101716.19;;;2.77;66.64
81379;BME280;70830;42.290;-71.354;2024-03-08T07:28:56;101701.34;;;2.66;65.83
81379;BME280;70830;42.290;-71.354;2024-03-08T07:31:23;101703.94;;;2.64;65.90
81379;BME280;70830;42.290;-71.354;2024-03-08T07:34:00;101717.00;;;2.70;65.54
81379;BME280;70830;42.290;-71.354;2024-03-08T07:36:26;101712.59;;;2.65;65.30
81379;BME280;70830;42.290;-71.354;2024-03-08T07:38:52;101716.09;;;2.64;65.33
81379;BME280;70830;42.290;-71.354;2024-03-08T07:41:18;101695.19;;;2.53;64.85
81379;BME280;70830;42.290;-71.354;2024-03-08T07:43:45;101723.06;;;2.66;64.86
81379;BME280;70830;42.290;-71.354;2024-03-08T07:46:11;101725.63;;;2.65;64.00
81379;BME280;70830;42.290;-71.354;2024-03-08T07:48:38;101709.00;;;2.49;65.07
81379;BME280;70830;42.290;-71.354;2024-03-08T07:51:05;101725.59;;;2.59;64.16
81379;BME280;70830;42.290;-71.354;2024-03-08T07:53:31;101721.22;;;2.56;63.88
81379;BME280;70830;42.290;-71.354;2024-03-08T07:55:57;101706.41;;;2.48;63.75
81379;BME280;70830;42.290;-71.354;2024-03-08T07:58:23;101718.56;;;2.49;64.09
81379;BME280;70830;42.290;-71.354;2024-03-08T08:00:49;101710.69;;;2.43;63.39
81379;BME280;70830;42.290;-71.354;2024-03-08T08:03:15;101724.63;;;2.49;64.17
81379;BME280;70830;42.290;-71.354;2024-03-08T08:05:41;101720.25;;;2.44;63.78
81379;BME280;70830;42.290;-71.354;2024-03-08T08:08:08;101715.00;;;2.39;63.92
81379;BME280;70830;42.290;-71.354;2024-03-08T08:10:36;101728.06;;;2.44;63.79
81379;BME280;70830;42.290;-71.354;2024-03-08T08:13:03;101734.94;;;2.40;63.08
81379;BME280;70830;42.290;-71.354;2024-03-08T08:15:32;101734.91;;;2.34;63.74
81379;BME280;70830;42.290;-71.354;2024-03-08T08:18:00;101730.53;;;2.30;63.34
81379;BME280;70830;42.290;-71.354;2024-03-08T08:20:28;101729.56;;;2.20;64.26
81379;BME280;70830;42.290;-71.354;2024-03-08T08:22:54;101754.84;;;2.31;63.09
81379;BME280;70830;42.290;-71.354;2024-03-08T08:25:21;101728.59;;;2.08;63.69
81379;BME280;70830;42.290;-71.354;2024-03-08T08:27:49;101756.47;;;2.19;62.73
81379;BME280;70830;42.290;-71.354;2024-03-08T08:30:16;101760.84;;;2.25;63.29
81379;BME280;70830;42.290;-71.354;2024-03-08T08:32:42;101745.97;;;2.12;63.70
81379;BME280;70830;42.290;-71.354;2024-03-08T08:35:08;101746.84;;;2.14;62.80
81379;BME280;70830;42.290;-71.354;2024-03-08T08:37:35;101776.44;;;2.25;62.82
81379;BME280;70830;42.290;-71.354;2024-03-08T08:40:04;101766.03;;;2.22;63.42
81379;BME280;70830;42.290;-71.354;2024-03-08T08:42:35;101774.72;;;2.24;63.29
81379;BME280;70830;42.290;-71.354;2024-03-08T08:45:01;101783.38;;;2.21;61.79
81379;BME280;70830;42.290;-71.354;2024-03-08T08:47:27;101787.69;;;2.21;63.79
81379;BME280;70830;42.290;-71.354;2024-03-08T08:49:53;101765.00;;;2.09;62.46
81379;BME280;70830;42.290;-71.354;2024-03-08T08:52:19;101788.47;;;2.14;62.88
81379;BME280;70830;42.290;-71.354;2024-03-08T08:54:45;101797.19;;;2.19;62.20
81379;BME280;70830;42.290;-71.354;2024-03-08T08:57:11;101778.84;;;2.05;63.22
81379;BME280;70830;42.290;-71.354;2024-03-08T08:59:37;101801.53;;;2.17;62.71
81379;BME280;70830;42.290;-71.354;2024-03-08T09:02:08;101810.16;;;2.13;62.76
81379;BME280;70830;42.290;-71.354;2024-03-08T09:04:36;101797.06;;;2.07;63.46
81379;BME280;70830;42.290;-71.354;2024-03-08T09:07:03;101804.06;;;2.11;63.20
81379;BME280;70830;42.290;-71.354;2024-03-08T09:09:32;101786.53;;;1.98;63.39
81379;BME280;70830;42.290;-71.354;2024-03-08T09:11:58;101811.88;;;2.12;62.63
81379;BME280;70830;42.290;-71.354;2024-03-08T09:14:24;101819.66;;;2.11;63.33
81379;BME280;70830;42.290;-71.354;2024-03-08T09:16:51;101792.56;;;1.92;62.61
81379;BME280;70830;42.290;-71.354;2024-03-08T09:19:17;101822.22;;;2.09;62.82
81379;BME280;70830;42.290;-71.354;2024-03-08T09:21:45;101826.53;;;2.06;63.65
81379;BME280;70830;42.290;-71.354;2024-03-08T09:24:11;101821.22;;;1.98;63.33
81379;BME280;70830;42.290;-71.354;2024-03-08T09:26:38;101828.19;;;1.99;63.94
81379;BME280;70830;42.290;-71.354;2024-03-08T09:29:06;101819.44;;;1.93;63.63
81379;BME280;70830;42.290;-71.354;2024-03-08T09:31:32;101817.63;;;1.86;64.71
81379;BME280;70830;42.290;-71.354;2024-03-08T09:33:59;101815.00;;;1.84;63.65
81379;BME280;70830;42.290;-71.354;2024-03-08T09:36:27;101835.81;;;1.86;64.67
81379;BME280;70830;42.290;-71.354;2024-03-08T09:38:53;101831.44;;;1.82;64.45
81379;BME280;70830;42.290;-71.354;2024-03-08T09:41:19;101815.69;;;1.70;64.22
81379;BME280;70830;42.290;-71.354;2024-03-08T09:43:46;101848.75;;;1.81;64.44
81379;BME280;70830;42.290;-71.354;2024-03-08T09:46:12;101852.13;;;1.76;65.37
81379;BME280;70830;42.290;-71.354;2024-03-08T09:48:40;101851.31;;;1.77;64.72
81379;BME280;70830;42.290;-71.354;2024-03-08T09:51:07;101852.13;;;1.73;65.59
81379;BME280;70830;42.290;-71.354;2024-03-08T09:53:34;101836.34;;;1.59;64.91
81379;BME280;70830;42.290;-71.354;2024-03-08T09:56:00;101850.28;;;1.64;65.66
81379;BME280;70830;42.290;-71.354;2024-03-08T09:58:29;101877.28;;;1.75;65.68
81379;BME280;70830;42.290;-71.354;2024-03-08T10:01:01;101840.59;;;1.54;65.99
81379;BME280;70830;42.290;-71.354;2024-03-08T10:03:28;101873.66;;;1.64;66.10
81379;BME280;70830;42.290;-71.354;2024-03-08T10:05:56;101861.34;;;1.51;65.72
81379;BME280;70830;42.290;-71.354;2024-03-08T10:08:29;101872.72;;;1.58;65.49
81379;BME280;70830;42.290;-71.354;2024-03-08T10:10:57;101863.91;;;1.49;66.86
81379;BME280;70830;42.290;-71.354;2024-03-08T10:13:25;101870.81;;;1.49;66.52
81379;BME280;70830;42.290;-71.354;2024-03-08T10:15:54;101863.69;;;1.34;66.45
81379;BME280;70830;42.290;-71.354;2024-03-08T10:18:21;101898.56;;;1.48;66.24
81379;BME280;70830;42.290;-71.354;2024-03-08T10:21:08;101907.25;;;1.51;66.14
81379;BME280;70830;42.290;-71.354;2024-03-08T10:23:42;101910.59;;;1.45;67.18
81379;BME280;70830;42.290;-71.354;2024-03-08T10:26:13;101910.59;;;1.43;67.24
81379;BME280;70830;42.290;-71.354;2024-03-08T10:28:48;101911.47;;;1.44;67.39
81379;BME280;70830;42.290;-71.354;2024-03-08T10:31:18;101896.56;;;1.32;66.55
81379;BME280;70830;42.290;-71.354;2024-03-08T10:33:45;101904.44;;;1.37;66.99
81379;BME280;70830;42.290;-71.354;2024-03-08T10:36:12;101897.38;;;1.28;67.37
81379;BME280;70830;42.290;-71.354;2024-03-08T10:38:40;101914.69;;;1.29;67.41
81379;BME280;70830;42.290;-71.354;2024-03-08T10:41:08;101913.78;;;1.27;67.25
81379;BME280;70830;42.290;-71.354;2024-03-08T10:44:16;101903.25;;;1.18;67.58
81379;BME280;70830;42.290;-71.354;2024-03-08T10:50:17;101910.16;;;1.16;67.65
81379;BME280;70830;42.290;-71.354;2024-03-08T10:52:49;101923.22;;;1.22;67.84
81379;BME280;70830;42.290;-71.354;2024-03-08T10:55:18;101918.81;;;1.17;67.58
81379;BME280;70830;42.290;-71.354;2024-03-08T10:57:46;101924.97;;;1.23;67.85
81379;BME280;70830;42.290;-71.354;2024-03-08T11:00:15;101932.78;;;1.23;68.29
81379;BME280;70830;42.290;-71.354;2024-03-08T11:02:45;101925.72;;;1.16;68.12
81379;BME280;70830;42.290;-71.354;2024-03-08T11:05:31;101937.91;;;1.20;67.70
81379;BME280;70830;42.290;-71.354;2024-03-08T11:08:01;101922.09;;;1.07;68.17
81379;BME280;70830;42.290;-71.354;2024-03-08T11:10:29;101942.03;;;1.08;68.04
81379;BME280;70830;42.290;-71.354;2024-03-08T11:12:55;101943.06;;;1.17;68.21
81379;BME280;70830;42.290;-71.354;2024-03-08T11:15:21;101949.19;;;1.21;68.20
81379;BME280;70830;42.290;-71.354;2024-03-08T11:17:48;101960.44;;;1.21;68.52
81379;BME280;70830;42.290;-71.354;2024-03-08T11:20:16;101951.69;;;1.15;68.27
81379;BME280;70830;42.290;-71.354;2024-03-08T11:23:04;101967.44;;;1.25;68.00
81379;BME280;70830;42.290;-71.354;2024-03-08T11:25:32;101964.78;;;1.22;68.74
81379;BME280;70830;42.290;-71.354;2024-03-08T11:28:18;101964.03;;;1.28;69.07
81379;BME280;70830;42.290;-71.354;2024-03-08T11:33:30;101963.22;;;1.30;68.84
81379;BME280;70830;42.290;-71.354;2024-03-08T11:36:07;101950.19;;;1.29;68.65
81379;BME280;70830;42.290;-71.354;2024-03-08T11:38:45;101912.63;;;1.09;69.10
81379;BME280;70830;42.290;-71.354;2024-03-08T11:41:21;101967.81;;;1.46;68.42
81379;BME280;70830;42.290;-71.354;2024-03-08T11:43:49;101977.56;;;1.61;68.49
81379;BME280;70830;42.290;-71.354;2024-03-08T11:46:26;101986.69;;;1.90;68.41
81379;BME280;70830;42.290;-71.354;2024-03-08T11:48:54;101956.59;;;2.06;67.55
81379;BME280;70830;42.290;-71.354;2024-03-08T11:51:21;101971.88;;;2.48;66.31
81379;BME280;70830;42.290;-71.354;2024-03-08T11:53:49;101969.66;;;2.79;66.85
81379;BME280;70830;42.290;-71.354;2024-03-08T11:56:18;101971.00;;;3.27;66.60
81379;BME280;70830;42.290;-71.354;2024-03-08T11:58:55;101970.50;;;3.70;65.09
81379;BME280;70830;42.290;-71.354;2024-03-08T12:01:24;101981.22;;;4.14;65.37
81379;BME280;70830;42.290;-71.354;2024-03-08T12:03:54;101985.81;;;4.63;64.29
81379;BME280;70830;42.290;-71.354;2024-03-08T12:06:24;101983.34;;;5.04;63.72
81379;BME280;70830;42.290;-71.354;2024-03-08T12:08:51;101972.91;;;5.25;62.03
81379;BME280;70830;42.290;-71.354;2024-03-08T12:11:17;101969.47;;;5.50;60.36
81379;BME280;70830;42.290;-71.354;2024-03-08T12:13:49;102005.22;;;6.01;61.39
81379;BME280;70830;42.290;-71.354;2024-03-08T12:16:19;102005.13;;;6.36;60.25
81379;BME280;70830;42.290;-71.354;2024-03-08T12:18:50;102012.00;;;6.76;59.58
81379;BME280;70830;42.290;-71.354;2024-03-08T12:21:17;102020.53;;;7.14;59.08
81379;BME280;70830;42.290;-71.354;2024-03-08T12:23:46;102017.66;;;7.54;58.07
81379;BME280;70830;42.290;-71.354;2024-03-08T12:26:24;102009.66;;;7.73;55.90
81379;BME280;70830;42.290;-71.354;2024-03-08T12:28:52;102021.72;;;7.95;55.95
81379;BME280;70830;42.290;-71.354;2024-03-08T12:31:18;101999.72;;;8.02;53.84
81379;BME280;70830;42.290;-71.354;2024-03-08T12:33:51;102020.53;;;8.28;52.20
81379;BME280;70830;42.290;-71.354;2024-03-08T12:36:19;102011.72;;;8.35;53.81
81379;BME280;70830;42.290;-71.354;2024-03-08T12:38:48;102060.44;;;8.66;53.27
81379;BME280;70830;42.290;-71.354;2024-03-08T12:41:18;102060.16;;;8.88;51.32
81379;BME280;70830;42.290;-71.354;2024-03-08T12:43:45;102060.81;;;9.06;51.98
81379;BME280;70830;42.290;-71.354;2024-03-08T12:46:20;102060.56;;;9.23;51.06
81379;BME280;70830;42.290;-71.354;2024-03-08T12:48:48;102055.31;;;9.24;50.08
81379;BME280;70830;42.290;-71.354;2024-03-08T12:51:15;102080.28;;;9.55;50.27
81379;BME280;70830;42.290;-71.354;2024-03-08T12:53:42;102058.97;;;9.72;49.92